Sichem Hawk — 9HSE9 — position and weather

sailwx.info

Track history (hours):
 
Tides and Currents Weather Stations Pressure Air Temp Water Temp Dewpoint Dewpoint Depression Visibility Wind Speed Wind Dir Waves Ship Positions

Sichem Hawk

Last reported at 2014-Sep-30 06:32 UTC. Time now 2014-Oct-01 08:12 UTC.
Position N 24°18' E 120°28'.

Length 170 m; draft 8.5 m.

Type: Ship. MMSI: 249445000.

Date/timePositionNaut miles runAvg speedWind from/ knotsBaromVisibWave heightAir tempDewpointWater temp
2014-Sep-30 06:32N 24°18' E 120°28'221 5.3
2014-Sep-28 12:30N 27°32' E 122°25'7514.9
2014-Sep-28 07:28N 28°46' E 122°36'1715.2
2014-Sep-28 06:22N 29°03' E 122°34'1315.5
2014-Sep-28 05:33N 29°16' E 122°34'1515.2
2014-Sep-28 04:32N 29°31' E 122°35'1312.9
2014-Sep-28 03:33N 29°40' E 122°25'1110.9
2014-Sep-28 02:33N 29°48' E 122°15'9 9.0
2014-Sep-28 01:33N 29°55' E 122°09'9 9.5
2014-Sep-28 00:33N 29°58' E 121°58'10 9.9
2014-Sep-27 23:33N 29°59' E 121°47'0 0.0
2014-Sep-27 04:33N 29°58' E 121°47'3 2.9
2014-Sep-27 03:33N 29°59' E 121°50'10 9.8
2014-Sep-27 02:33N 29°56' E 122°01'1211.9
2014-Sep-27 01:33N 29°50' E 122°13'1010.2
2014-Sep-27 00:33N 29°44' E 122°22'5 2.2
2014-Sep-26 22:14N 29°43' E 122°28'0 0.0
2014-Sep-26 20:32N 29°43' E 122°28'0 0.0
2014-Sep-26 13:26N 29°44' E 122°28'0 0.1
2014-Sep-26 10:26N 29°43' E 122°28'0 0.1
2014-Sep-26 09:08N 29°43' E 122°28'0 0.0
2014-Sep-26 04:32N 29°44' E 122°28'0 0.0
2014-Sep-26 03:20N 29°44' E 122°28'0 0.0
2014-Sep-26 02:08N 29°44' E 122°28'0 0.1
2014-Sep-26 00:08N 29°44' E 122°28'0 0.1
2014-Sep-25 23:14N 29°44' E 122°28'0 0.1
2014-Sep-25 21:08N 29°43' E 122°28'0 0.0
2014-Sep-25 00:26N 29°44' E 122°28'0 0.0
2014-Sep-24 23:26N 29°44' E 122°28'0 0.1
2014-Sep-24 22:14N 29°43' E 122°28'0 0.0
2014-Sep-24 19:08N 29°43' E 122°28'0 0.0
2014-Sep-24 18:26N 29°43' E 122°28'0 0.1
2014-Sep-24 15:26N 29°44' E 122°28'0 0.0
2014-Sep-24 10:20N 29°44' E 122°28'0 0.0
2014-Sep-24 00:20N 29°44' E 122°28'0 0.0
2014-Sep-23 22:14N 29°44' E 122°28'0 0.1
2014-Sep-23 19:20N 29°43' E 122°28'0 0.1
2014-Sep-23 14:32N 29°44' E 122°28'0 0.1
2014-Sep-23 13:14N 29°44' E 122°28'0 0.1
2014-Sep-23 06:33N 29°44' E 122°29'8 7.8
2014-Sep-23 05:33N 29°44' E 122°37'1010.5
2014-Sep-23 04:33N 29°46' E 122°49'6 2.9
2014-Sep-23 02:32N 29°41' E 122°45'7 0.5
2014-Sep-22 12:19N 29°47' E 122°50'2 3.0
2014-Sep-22 11:32N 29°48' E 122°47'4 3.6
2014-Sep-22 10:27N 29°49' E 122°43'4 4.1
2014-Sep-22 09:32N 29°50' E 122°39'5 4.6
2014-Sep-22 08:33N 29°48' E 122°34'5 5.0
2014-Sep-22 07:33N 29°46' E 122°28'3 2.6
2014-Sep-22 06:13N 29°44' E 122°26'0 0.3
2014-Sep-22 05:07N 29°44' E 122°26'0 0.1
2014-Sep-22 04:13N 29°44' E 122°26'0 0.1
2014-Sep-22 03:13N 29°44' E 122°26'0 0.0
2014-Sep-21 21:31N 29°44' E 122°26'0 0.1
2014-Sep-21 20:31N 29°44' E 122°26'0 0.1
2014-Sep-21 19:13N 29°44' E 122°26'2 0.9
2014-Sep-21 17:34N 29°45' E 122°28'1212.0
2014-Sep-21 16:33N 29°47' E 122°41'  
Track history (hours):
 
Tides and Currents Weather Stations Pressure Air Temp Water Temp Dewpoint Dewpoint Depression Visibility Wind Speed Wind Dir Waves Ship Positions

Sichem Hawk

Last reported at 2014-Sep-30 06:32 UTC. Time now 2014-Oct-01 08:12 UTC.
Position N 24°18' E 120°28'.

Length 170 m; draft 8.5 m.

Type: Ship. MMSI: 249445000.

Date/timePositionNaut miles runAvg speedWind from/ knotsBaromVisibWave heightAir tempDewpointWater temp
2014-Sep-30 06:32N 24°18' E 120°28'221 5.3
2014-Sep-28 12:30N 27°32' E 122°25'7514.9
2014-Sep-28 07:28N 28°46' E 122°36'1715.2
2014-Sep-28 06:22N 29°03' E 122°34'1315.5
2014-Sep-28 05:33N 29°16' E 122°34'1515.2
2014-Sep-28 04:32N 29°31' E 122°35'1312.9
2014-Sep-28 03:33N 29°40' E 122°25'1110.9
2014-Sep-28 02:33N 29°48' E 122°15'9 9.0
2014-Sep-28 01:33N 29°55' E 122°09'9 9.5
2014-Sep-28 00:33N 29°58' E 121°58'10 9.9
2014-Sep-27 23:33N 29°59' E 121°47'0 0.0
2014-Sep-27 04:33N 29°58' E 121°47'3 2.9
2014-Sep-27 03:33N 29°59' E 121°50'10 9.8
2014-Sep-27 02:33N 29°56' E 122°01'1211.9
2014-Sep-27 01:33N 29°50' E 122°13'1010.2
2014-Sep-27 00:33N 29°44' E 122°22'5 2.2
2014-Sep-26 22:14N 29°43' E 122°28'0 0.0
2014-Sep-26 20:32N 29°43' E 122°28'0 0.0
2014-Sep-26 13:26N 29°44' E 122°28'0 0.1
2014-Sep-26 10:26N 29°43' E 122°28'0 0.1
2014-Sep-26 09:08N 29°43' E 122°28'0 0.0
2014-Sep-26 04:32N 29°44' E 122°28'0 0.0
2014-Sep-26 03:20N 29°44' E 122°28'0 0.0
2014-Sep-26 02:08N 29°44' E 122°28'0 0.1
2014-Sep-26 00:08N 29°44' E 122°28'0 0.1
2014-Sep-25 23:14N 29°44' E 122°28'0 0.1
2014-Sep-25 21:08N 29°43' E 122°28'0 0.0
2014-Sep-25 00:26N 29°44' E 122°28'0 0.0
2014-Sep-24 23:26N 29°44' E 122°28'0 0.1
2014-Sep-24 22:14N 29°43' E 122°28'0 0.0
2014-Sep-24 19:08N 29°43' E 122°28'0 0.0
2014-Sep-24 18:26N 29°43' E 122°28'0 0.1
2014-Sep-24 15:26N 29°44' E 122°28'0 0.0
2014-Sep-24 10:20N 29°44' E 122°28'0 0.0
2014-Sep-24 00:20N 29°44' E 122°28'0 0.0
2014-Sep-23 22:14N 29°44' E 122°28'0 0.1
2014-Sep-23 19:20N 29°43' E 122°28'0 0.1
2014-Sep-23 14:32N 29°44' E 122°28'0 0.1
2014-Sep-23 13:14N 29°44' E 122°28'0 0.1
2014-Sep-23 06:33N 29°44' E 122°29'8 7.8
2014-Sep-23 05:33N 29°44' E 122°37'1010.5
2014-Sep-23 04:33N 29°46' E 122°49'6 2.9
2014-Sep-23 02:32N 29°41' E 122°45'7 0.5
2014-Sep-22 12:19N 29°47' E 122°50'2 3.0
2014-Sep-22 11:32N 29°48' E 122°47'4 3.6
2014-Sep-22 10:27N 29°49' E 122°43'4 4.1
2014-Sep-22 09:32N 29°50' E 122°39'5 4.6
2014-Sep-22 08:33N 29°48' E 122°34'5 5.0
2014-Sep-22 07:33N 29°46' E 122°28'3 2.6
2014-Sep-22 06:13N 29°44' E 122°26'0 0.3
2014-Sep-22 05:07N 29°44' E 122°26'0 0.1
2014-Sep-22 04:13N 29°44' E 122°26'0 0.1
2014-Sep-22 03:13N 29°44' E 122°26'0 0.0
2014-Sep-21 21:31N 29°44' E 122°26'0 0.1
2014-Sep-21 20:31N 29°44' E 122°26'0 0.1
2014-Sep-21 19:13N 29°44' E 122°26'2 0.9
2014-Sep-21 17:34N 29°45' E 122°28'1212.0
2014-Sep-21 16:33N 29°47' E 122°41'  

Dump ship's entire track history